sensor_id;sensor_type;location;lat;lon;timestamp;P1;durP1;ratioP1;P2;durP2;ratioP2
10493;SDS011;5294;49.410;8.698;2022-09-28T00:02:05;1.77;;;1.67;;
10493;SDS011;5294;49.410;8.698;2022-09-28T00:04:31;1.57;;;1.47;;
10493;SDS011;5294;49.410;8.698;2022-09-28T00:06:57;3.50;;;1.83;;
10493;SDS011;5294;49.410;8.698;2022-09-28T00:09:23;2.50;;;1.77;;
10493;SDS011;5294;49.410;8.698;2022-09-28T00:11:50;1.97;;;1.70;;
10493;SDS011;5294;49.410;8.698;2022-09-28T00:14:17;1.93;;;1.60;;
10493;SDS011;5294;49.410;8.698;2022-09-28T00:16:43;2.67;;;1.67;;
10493;SDS011;5294;49.410;8.698;2022-09-28T00:19:12;3.23;;;1.30;;
10493;SDS011;5294;49.410;8.698;2022-09-28T00:21:38;2.27;;;1.43;;
10493;SDS011;5294;49.410;8.698;2022-09-28T00:24:06;3.17;;;1.77;;
10493;SDS011;5294;49.410;8.698;2022-09-28T00:26:50;1.63;;;1.50;;
10493;SDS011;5294;49.410;8.698;2022-09-28T00:29:20;2.07;;;1.60;;
10493;SDS011;5294;49.410;8.698;2022-09-28T00:31:51;2.90;;;1.70;;
10493;SDS011;5294;49.410;8.698;2022-09-28T00:34:17;2.17;;;1.40;;
10493;SDS011;5294;49.410;8.698;2022-09-28T00:36:46;2.70;;;2.10;;
10493;SDS011;5294;49.410;8.698;2022-09-28T00:39:13;1.80;;;1.70;;
10493;SDS011;5294;49.410;8.698;2022-09-28T00:41:39;3.47;;;1.70;;
10493;SDS011;5294;49.410;8.698;2022-09-28T00:44:26;2.10;;;1.90;;
10493;SDS011;5294;49.410;8.698;2022-09-28T00:49:44;2.70;;;1.93;;
10493;SDS011;5294;49.410;8.698;2022-09-28T00:52:13;2.93;;;1.83;;
10493;SDS011;5294;49.410;8.698;2022-09-28T00:54:40;2.67;;;2.17;;
10493;SDS011;5294;49.410;8.698;2022-09-28T00:57:08;2.67;;;1.90;;
10493;SDS011;5294;49.410;8.698;2022-09-28T00:59:34;3.60;;;1.90;;
10493;SDS011;5294;49.410;8.698;2022-09-28T01:02:00;3.37;;;2.17;;
10493;SDS011;5294;49.410;8.698;2022-09-28T01:04:26;2.00;;;1.77;;
10493;SDS011;5294;49.410;8.698;2022-09-28T01:06:56;2.67;;;2.07;;
10493;SDS011;5294;49.410;8.698;2022-09-28T01:09:22;2.10;;;1.80;;
10493;SDS011;5294;49.410;8.698;2022-09-28T01:11:49;2.03;;;1.80;;
10493;SDS011;5294;49.410;8.698;2022-09-28T01:14:15;2.30;;;2.20;;
10493;SDS011;5294;49.410;8.698;2022-09-28T01:16:54;2.40;;;2.20;;
10493;SDS011;5294;49.410;8.698;2022-09-28T01:29:25;2.63;;;2.07;;
10493;SDS011;5294;49.410;8.698;2022-09-28T01:32:07;2.63;;;2.40;;
10493;SDS011;5294;49.410;8.698;2022-09-28T01:34:36;2.70;;;2.27;;
10493;SDS011;5294;49.410;8.698;2022-09-28T01:37:06;2.53;;;2.33;;
10493;SDS011;5294;49.410;8.698;2022-09-28T01:39:39;3.97;;;2.77;;
10493;SDS011;5294;49.410;8.698;2022-09-28T01:42:10;2.93;;;2.60;;
10493;SDS011;5294;49.410;8.698;2022-09-28T01:44:39;3.97;;;2.77;;
10493;SDS011;5294;49.410;8.698;2022-09-28T01:47:07;3.10;;;2.80;;
10493;SDS011;5294;49.410;8.698;2022-09-28T01:49:43;3.27;;;2.67;;
10493;SDS011;5294;49.410;8.698;2022-09-28T01:52:20;3.13;;;2.90;;
10493;SDS011;5294;49.410;8.698;2022-09-28T01:54:56;3.83;;;2.80;;
10493;SDS011;5294;49.410;8.698;2022-09-28T01:57:30;6.50;;;3.30;;
10493;SDS011;5294;49.410;8.698;2022-09-28T02:00:03;3.60;;;3.30;;
10493;SDS011;5294;49.410;8.698;2022-09-28T02:02:31;3.50;;;3.20;;
10493;SDS011;5294;49.410;8.698;2022-09-28T02:10:04;2.77;;;2.57;;
10493;SDS011;5294;49.410;8.698;2022-09-28T02:12:50;2.87;;;2.33;;
10493;SDS011;5294;49.410;8.698;2022-09-28T02:15:28;3.03;;;2.73;;
10493;SDS011;5294;49.410;8.698;2022-09-28T02:17:55;3.20;;;2.87;;
10493;SDS011;5294;49.410;8.698;2022-09-28T02:20:26;3.67;;;2.40;;
10493;SDS011;5294;49.410;8.698;2022-09-28T02:22:54;2.40;;;2.30;;
10493;SDS011;5294;49.410;8.698;2022-09-28T02:25:33;2.80;;;2.60;;
10493;SDS011;5294;49.410;8.698;2022-09-28T02:28:05;3.00;;;2.57;;
10493;SDS011;5294;49.410;8.698;2022-09-28T02:30:32;2.80;;;2.20;;
10493;SDS011;5294;49.410;8.698;2022-09-28T02:35:35;2.50;;;2.30;;
10493;SDS011;5294;49.410;8.698;2022-09-28T02:38:04;2.90;;;1.93;;
10493;SDS011;5294;49.410;8.698;2022-09-28T02:40:31;1.80;;;1.70;;
10493;SDS011;5294;49.410;8.698;2022-09-28T02:43:05;3.03;;;2.17;;
10493;SDS011;5294;49.410;8.698;2022-09-28T02:50:48;2.07;;;1.87;;
10493;SDS011;5294;49.410;8.698;2022-09-28T03:03:38;1.30;;;1.30;;
10493;SDS011;5294;49.410;8.698;2022-09-28T03:06:08;1.63;;;1.50;;
10493;SDS011;5294;49.410;8.698;2022-09-28T03:08:37;1.13;;;1.13;;
10493;SDS011;5294;49.410;8.698;2022-09-28T03:11:08;1.30;;;1.20;;
10493;SDS011;5294;49.410;8.698;2022-09-28T03:13:37;1.70;;;1.03;;
10493;SDS011;5294;49.410;8.698;2022-09-28T03:16:13;0.90;;;0.90;;
10493;SDS011;5294;49.410;8.698;2022-09-28T03:18:42;1.27;;;1.17;;
10493;SDS011;5294;49.410;8.698;2022-09-28T03:21:09;1.40;;;1.33;;
10493;SDS011;5294;49.410;8.698;2022-09-28T03:23:38;1.50;;;1.47;;
10493;SDS011;5294;49.410;8.698;2022-09-28T03:26:06;1.90;;;1.80;;
10493;SDS011;5294;49.410;8.698;2022-09-28T03:28:34;1.90;;;1.80;;
10493;SDS011;5294;49.410;8.698;2022-09-28T03:31:02;1.70;;;1.60;;
10493;SDS011;5294;49.410;8.698;2022-09-28T03:33:31;1.90;;;1.80;;
10493;SDS011;5294;49.410;8.698;2022-09-28T03:35:59;2.43;;;2.23;;
10493;SDS011;5294;49.410;8.698;2022-09-28T03:38:25;2.30;;;2.00;;
10493;SDS011;5294;49.410;8.698;2022-09-28T03:40:52;2.40;;;2.30;;
10493;SDS011;5294;49.410;8.698;2022-09-28T03:43:21;2.13;;;2.03;;
10493;SDS011;5294;49.410;8.698;2022-09-28T03:45:51;2.40;;;2.17;;
10493;SDS011;5294;49.410;8.698;2022-09-28T03:48:19;1.83;;;1.73;;
10493;SDS011;5294;49.410;8.698;2022-09-28T03:50:46;1.43;;;1.33;;
10493;SDS011;5294;49.410;8.698;2022-09-28T03:53:12;1.90;;;1.63;;
10493;SDS011;5294;49.410;8.698;2022-09-28T03:55:40;1.80;;;1.47;;
10493;SDS011;5294;49.410;8.698;2022-09-28T03:58:06;1.67;;;1.57;;
10493;SDS011;5294;49.410;8.698;2022-09-28T04:00:32;3.13;;;2.93;;
10493;SDS011;5294;49.410;8.698;2022-09-28T04:02:58;1.90;;;1.57;;
10493;SDS011;5294;49.410;8.698;2022-09-28T04:05:24;1.50;;;1.40;;
10493;SDS011;5294;49.410;8.698;2022-09-28T04:07:55;2.27;;;2.00;;
10493;SDS011;5294;49.410;8.698;2022-09-28T04:10:22;2.80;;;1.67;;
10493;SDS011;5294;49.410;8.698;2022-09-28T04:12:48;1.63;;;1.53;;
10493;SDS011;5294;49.410;8.698;2022-09-28T04:15:15;1.70;;;1.60;;
10493;SDS011;5294;49.410;8.698;2022-09-28T04:17:43;3.27;;;2.17;;
10493;SDS011;5294;49.410;8.698;2022-09-28T04:20:09;1.73;;;1.63;;
10493;SDS011;5294;49.410;8.698;2022-09-28T04:22:35;1.43;;;1.33;;
10493;SDS011;5294;49.410;8.698;2022-09-28T04:25:04;1.30;;;1.20;;
10493;SDS011;5294;49.410;8.698;2022-09-28T04:27:32;1.80;;;1.70;;
10493;SDS011;5294;49.410;8.698;2022-09-28T04:30:17;2.23;;;2.00;;
10493;SDS011;5294;49.410;8.698;2022-09-28T04:32:48;1.87;;;1.77;;
10493;SDS011;5294;49.410;8.698;2022-09-28T04:35:14;2.73;;;1.97;;
10493;SDS011;5294;49.410;8.698;2022-09-28T04:37:40;2.20;;;1.87;;
10493;SDS011;5294;49.410;8.698;2022-09-28T04:40:08;2.00;;;1.90;;
10493;SDS011;5294;49.410;8.698;2022-09-28T04:42:35;3.40;;;2.00;;
10493;SDS011;5294;49.410;8.698;2022-09-28T04:45:01;2.30;;;1.97;;
10493;SDS011;5294;49.410;8.698;2022-09-28T04:47:29;3.43;;;1.90;;
10493;SDS011;5294;49.410;8.698;2022-09-28T04:49:57;2.77;;;1.90;;
10493;SDS011;5294;49.410;8.698;2022-09-28T04:52:23;2.30;;;2.00;;
10493;SDS011;5294;49.410;8.698;2022-09-28T04:54:50;3.47;;;2.13;;
10493;SDS011;5294;49.410;8.698;2022-09-28T04:57:16;2.47;;;2.27;;
10493;SDS011;5294;49.410;8.698;2022-09-28T04:59:42;3.10;;;2.30;;
10493;SDS011;5294;49.410;8.698;2022-09-28T05:02:11;2.60;;;2.40;;
10493;SDS011;5294;49.410;8.698;2022-09-28T05:04:38;3.43;;;2.07;;
10493;SDS011;5294;49.410;8.698;2022-09-28T05:07:07;3.27;;;2.40;;
10493;SDS011;5294;49.410;8.698;2022-09-28T05:09:33;2.17;;;2.07;;
10493;SDS011;5294;49.410;8.698;2022-09-28T05:12:01;2.63;;;2.43;;
10493;SDS011;5294;49.410;8.698;2022-09-28T05:14:27;3.20;;;2.50;;
10493;SDS011;5294;49.410;8.698;2022-09-28T05:16:56;2.43;;;2.23;;
10493;SDS011;5294;49.410;8.698;2022-09-28T05:19:22;3.70;;;2.50;;
10493;SDS011;5294;49.410;8.698;2022-09-28T05:21:48;2.83;;;2.57;;
10493;SDS011;5294;49.410;8.698;2022-09-28T05:24:16;2.97;;;2.57;;
10493;SDS011;5294;49.410;8.698;2022-09-28T05:26:42;2.73;;;2.53;;
10493;SDS011;5294;49.410;8.698;2022-09-28T05:29:08;2.77;;;2.57;;
10493;SDS011;5294;49.410;8.698;2022-09-28T05:31:36;2.70;;;2.50;;
10493;SDS011;5294;49.410;8.698;2022-09-28T05:34:05;2.80;;;2.60;;
10493;SDS011;5294;49.410;8.698;2022-09-28T05:36:31;3.20;;;2.90;;
10493;SDS011;5294;49.410;8.698;2022-09-28T05:38:59;3.43;;;3.13;;
10493;SDS011;5294;49.410;8.698;2022-09-28T05:41:27;3.80;;;3.00;;
10493;SDS011;5294;49.410;8.698;2022-09-28T05:43:53;3.53;;;3.00;;
10493;SDS011;5294;49.410;8.698;2022-09-28T05:46:22;3.13;;;2.83;;
10493;SDS011;5294;49.410;8.698;2022-09-28T05:48:50;3.67;;;3.10;;
10493;SDS011;5294;49.410;8.698;2022-09-28T05:51:19;3.50;;;3.20;;
10493;SDS011;5294;49.410;8.698;2022-09-28T05:53:45;8.63;;;4.33;;
10493;SDS011;5294;49.410;8.698;2022-09-28T05:56:13;3.67;;;3.30;;
10493;SDS011;5294;49.410;8.698;2022-09-28T05:58:39;5.53;;;3.63;;
10493;SDS011;5294;49.410;8.698;2022-09-28T06:01:05;4.80;;;3.50;;
10493;SDS011;5294;49.410;8.698;2022-09-28T06:03:31;3.57;;;3.00;;
10493;SDS011;5294;49.410;8.698;2022-09-28T06:05:59;4.27;;;3.23;;
10493;SDS011;5294;49.410;8.698;2022-09-28T06:08:26;4.50;;;4.10;;
10493;SDS011;5294;49.410;8.698;2022-09-28T06:10:53;3.90;;;3.60;;
10493;SDS011;5294;49.410;8.698;2022-09-28T06:13:18;4.50;;;3.40;;
10493;SDS011;5294;49.410;8.698;2022-09-28T06:15:44;3.60;;;3.20;;
10493;SDS011;5294;49.410;8.698;2022-09-28T06:18:15;4.30;;;4.00;;
10493;SDS011;5294;49.410;8.698;2022-09-28T06:20:41;4.37;;;3.93;;
10493;SDS011;5294;49.410;8.698;2022-09-28T06:23:08;4.40;;;3.97;;
10493;SDS011;5294;49.410;8.698;2022-09-28T06:25:34;4.60;;;4.17;;
10493;SDS011;5294;49.410;8.698;2022-09-28T06:28:01;5.30;;;3.80;;
10493;SDS011;5294;49.410;8.698;2022-09-28T06:30:27;4.30;;;3.90;;
10493;SDS011;5294;49.410;8.698;2022-09-28T06:32:54;4.50;;;4.10;;
10493;SDS011;5294;49.410;8.698;2022-09-28T06:35:23;4.37;;;3.87;;
10493;SDS011;5294;49.410;8.698;2022-09-28T06:37:50;4.33;;;3.93;;
10493;SDS011;5294;49.410;8.698;2022-09-28T06:40:16;5.50;;;3.70;;
10493;SDS011;5294;49.410;8.698;2022-09-28T06:42:42;4.97;;;4.23;;
10493;SDS011;5294;49.410;8.698;2022-09-28T06:45:08;4.23;;;3.83;;
10493;SDS011;5294;49.410;8.698;2022-09-28T06:47:35;4.27;;;3.80;;
10493;SDS011;5294;49.410;8.698;2022-09-28T06:50:01;5.17;;;3.70;;
10493;SDS011;5294;49.410;8.698;2022-09-28T06:52:27;3.93;;;3.63;;
10493;SDS011;5294;49.410;8.698;2022-09-28T06:54:53;4.20;;;3.90;;
10493;SDS011;5294;49.410;8.698;2022-09-28T06:57:19;4.50;;;4.10;;
10493;SDS011;5294;49.410;8.698;2022-09-28T06:59:45;5.70;;;4.00;;
10493;SDS011;5294;49.410;8.698;2022-09-28T07:02:12;5.10;;;4.30;;
10493;SDS011;5294;49.410;8.698;2022-09-28T07:04:41;4.83;;;3.80;;
10493;SDS011;5294;49.410;8.698;2022-09-28T07:07:10;5.50;;;3.90;;
10493;SDS011;5294;49.410;8.698;2022-09-28T07:09:36;4.80;;;3.60;;
10493;SDS011;5294;49.410;8.698;2022-09-28T07:12:05;3.87;;;3.47;;
10493;SDS011;5294;49.410;8.698;2022-09-28T07:14:34;4.53;;;3.30;;
10493;SDS011;5294;49.410;8.698;2022-09-28T07:17:03;4.13;;;3.73;;
10493;SDS011;5294;49.410;8.698;2022-09-28T07:19:29;3.23;;;2.93;;
10493;SDS011;5294;49.410;8.698;2022-09-28T07:21:55;3.53;;;3.20;;
10493;SDS011;5294;49.410;8.698;2022-09-28T07:24:24;3.50;;;3.20;;
10493;SDS011;5294;49.410;8.698;2022-09-28T07:26:50;5.00;;;3.50;;
10493;SDS011;5294;49.410;8.698;2022-09-28T07:29:16;6.53;;;3.70;;
10493;SDS011;5294;49.410;8.698;2022-09-28T07:31:42;4.00;;;3.47;;
10493;SDS011;5294;49.410;8.698;2022-09-28T07:34:08;4.93;;;3.60;;
10493;SDS011;5294;49.410;8.698;2022-09-28T07:36:37;4.60;;;3.03;;
10493;SDS011;5294;49.410;8.698;2022-09-28T07:39:05;4.27;;;3.30;;
10493;SDS011;5294;49.410;8.698;2022-09-28T07:41:31;3.63;;;3.23;;
10493;SDS011;5294;49.410;8.698;2022-09-28T07:44:00;6.87;;;3.70;;
10493;SDS011;5294;49.410;8.698;2022-09-28T07:46:33;3.60;;;2.83;;
10493;SDS011;5294;49.410;8.698;2022-09-28T07:49:00;3.97;;;3.37;;
10493;SDS011;5294;49.410;8.698;2022-09-28T07:51:31;3.40;;;2.60;;
10493;SDS011;5294;49.410;8.698;2022-09-28T07:53:57;3.90;;;2.43;;
10493;SDS011;5294;49.410;8.698;2022-09-28T07:56:26;3.07;;;2.53;;
10493;SDS011;5294;49.410;8.698;2022-09-28T07:58:54;2.77;;;2.47;;
10493;SDS011;5294;49.410;8.698;2022-09-28T08:01:23;5.53;;;2.60;;
10493;SDS011;5294;49.410;8.698;2022-09-28T08:03:49;2.80;;;2.20;;
10493;SDS011;5294;49.410;8.698;2022-09-28T08:06:20;5.43;;;2.80;;
10493;SDS011;5294;49.410;8.698;2022-09-28T08:08:48;3.03;;;2.60;;
10493;SDS011;5294;49.410;8.698;2022-09-28T08:11:18;3.73;;;2.87;;
10493;SDS011;5294;49.410;8.698;2022-09-28T08:13:44;3.23;;;2.43;;
10493;SDS011;5294;49.410;8.698;2022-09-28T08:16:13;2.70;;;2.40;;
10493;SDS011;5294;49.410;8.698;2022-09-28T08:18:39;4.57;;;2.83;;
10493;SDS011;5294;49.410;8.698;2022-09-28T08:21:05;3.03;;;2.73;;
10493;SDS011;5294;49.410;8.698;2022-09-28T08:23:49;3.67;;;2.30;;
10493;SDS011;5294;49.410;8.698;2022-09-28T08:26:20;4.13;;;2.43;;
10493;SDS011;5294;49.410;8.698;2022-09-28T08:28:49;3.33;;;2.50;;
10493;SDS011;5294;49.410;8.698;2022-09-28T08:31:19;2.83;;;2.63;;
10493;SDS011;5294;49.410;8.698;2022-09-28T08:33:47;3.13;;;2.23;;
10493;SDS011;5294;49.410;8.698;2022-09-28T08:36:17;4.67;;;2.70;;
10493;SDS011;5294;49.410;8.698;2022-09-28T08:38:43;3.73;;;2.70;;
10493;SDS011;5294;49.410;8.698;2022-09-28T08:46:21;2.77;;;2.20;;
10493;SDS011;5294;49.410;8.698;2022-09-28T08:48:51;3.57;;;2.27;;
10493;SDS011;5294;49.410;8.698;2022-09-28T08:51:22;3.40;;;2.40;;
10493;SDS011;5294;49.410;8.698;2022-09-28T08:53:52;2.20;;;1.87;;
10493;SDS011;5294;49.410;8.698;2022-09-28T08:56:41;2.50;;;2.30;;
10493;SDS011;5294;49.410;8.698;2022-09-28T08:59:13;3.37;;;2.53;;
10493;SDS011;5294;49.410;8.698;2022-09-28T09:01:46;3.73;;;2.60;;
10493;SDS011;5294;49.410;8.698;2022-09-28T09:04:13;4.00;;;2.40;;
10493;SDS011;5294;49.410;8.698;2022-09-28T09:09:29;2.97;;;1.97;;
10493;SDS011;5294;49.410;8.698;2022-09-28T09:16:52;3.87;;;2.70;;
10493;SDS011;5294;49.410;8.698;2022-09-28T09:19:32;2.70;;;2.20;;
10493;SDS011;5294;49.410;8.698;2022-09-28T09:22:12;4.33;;;2.80;;
10493;SDS011;5294;49.410;8.698;2022-09-28T09:24:44;2.57;;;2.30;;
10493;SDS011;5294;49.410;8.698;2022-09-28T09:47:26;3.03;;;2.40;;
10493;SDS011;5294;49.410;8.698;2022-09-28T09:49:55;2.00;;;1.90;;
10493;SDS011;5294;49.410;8.698;2022-09-28T09:52:28;3.03;;;2.40;;
10493;SDS011;5294;49.410;8.698;2022-09-28T09:55:15;6.80;;;3.47;;
10493;SDS011;5294;49.410;8.698;2022-09-28T09:57:50;3.70;;;2.67;;
10493;SDS011;5294;49.410;8.698;2022-09-28T10:00:17;3.83;;;2.23;;
10493;SDS011;5294;49.410;8.698;2022-09-28T10:02:43;2.23;;;2.03;;
10493;SDS011;5294;49.410;8.698;2022-09-28T10:07:40;3.90;;;2.50;;
10493;SDS011;5294;49.410;8.698;2022-09-28T10:10:12;2.83;;;2.47;;
10493;SDS011;5294;49.410;8.698;2022-09-28T10:12:40;2.47;;;2.03;;
10493;SDS011;5294;49.410;8.698;2022-09-28T10:15:06;2.67;;;2.07;;
10493;SDS011;5294;49.410;8.698;2022-09-28T10:17:32;2.33;;;2.13;;
10493;SDS011;5294;49.410;8.698;2022-09-28T10:20:02;3.17;;;2.30;;
10493;SDS011;5294;49.410;8.698;2022-09-28T10:22:31;2.90;;;2.37;;
10493;SDS011;5294;49.410;8.698;2022-09-28T10:24:59;4.77;;;2.33;;
10493;SDS011;5294;49.410;8.698;2022-09-28T10:27:29;2.70;;;2.50;;
10493;SDS011;5294;49.410;8.698;2022-09-28T10:32:40;4.43;;;3.07;;
10493;SDS011;5294;49.410;8.698;2022-09-28T10:35:13;5.57;;;3.10;;
10493;SDS011;5294;49.410;8.698;2022-09-28T10:40:58;2.73;;;2.53;;
10493;SDS011;5294;49.410;8.698;2022-09-28T10:43:14;2.63;;;2.10;;
10493;SDS011;5294;49.410;8.698;2022-09-28T10:45:44;3.43;;;2.13;;
10493;SDS011;5294;49.410;8.698;2022-09-28T10:48:15;3.90;;;2.80;;
10493;SDS011;5294;49.410;8.698;2022-09-28T10:50:42;2.60;;;1.90;;
10493;SDS011;5294;49.410;8.698;2022-09-28T10:53:21;2.50;;;2.30;;
10493;SDS011;5294;49.410;8.698;2022-09-28T10:56:08;3.23;;;2.23;;
10493;SDS011;5294;49.410;8.698;2022-09-28T10:58:40;2.17;;;1.97;;
10493;SDS011;5294;49.410;8.698;2022-09-28T11:01:08;3.07;;;2.40;;
10493;SDS011;5294;49.410;8.698;2022-09-28T11:03:38;2.63;;;2.43;;
10493;SDS011;5294;49.410;8.698;2022-09-28T11:06:06;2.60;;;2.40;;
10493;SDS011;5294;49.410;8.698;2022-09-28T11:08:41;5.00;;;2.50;;
10493;SDS011;5294;49.410;8.698;2022-09-28T11:13:52;4.53;;;3.00;;
10493;SDS011;5294;49.410;8.698;2022-09-28T11:16:23;3.13;;;2.50;;
10493;SDS011;5294;49.410;8.698;2022-09-28T11:18:50;2.30;;;1.97;;
10493;SDS011;5294;49.410;8.698;2022-09-28T11:21:17;3.47;;;2.47;;
10493;SDS011;5294;49.410;8.698;2022-09-28T11:26:33;2.13;;;1.90;;
10493;SDS011;5294;49.410;8.698;2022-09-28T11:29:00;2.43;;;2.20;;
10493;SDS011;5294;49.410;8.698;2022-09-28T11:31:28;2.73;;;2.53;;
10493;SDS011;5294;49.410;8.698;2022-09-28T11:34:15;2.67;;;2.20;;
10493;SDS011;5294;49.410;8.698;2022-09-28T11:37:31;2.53;;;2.27;;
10493;SDS011;5294;49.410;8.698;2022-09-28T11:42:10;5.03;;;2.30;;
10493;SDS011;5294;49.410;8.698;2022-09-28T11:49:42;2.30;;;1.83;;
10493;SDS011;5294;49.410;8.698;2022-09-28T11:52:16;2.63;;;2.40;;
10493;SDS011;5294;49.410;8.698;2022-09-28T11:54:44;2.80;;;2.60;;
10493;SDS011;5294;49.410;8.698;2022-09-28T11:57:17;3.07;;;2.47;;
10493;SDS011;5294;49.410;8.698;2022-09-28T12:02:19;3.13;;;2.00;;
10493;SDS011;5294;49.410;8.698;2022-09-28T12:04:55;3.90;;;2.63;;
10493;SDS011;5294;49.410;8.698;2022-09-28T12:07:24;4.23;;;2.37;;
10493;SDS011;5294;49.410;8.698;2022-09-28T12:09:54;3.33;;;2.17;;
10493;SDS011;5294;49.410;8.698;2022-09-28T12:15:17;4.30;;;2.30;;
10493;SDS011;5294;49.410;8.698;2022-09-28T12:17:49;2.00;;;1.90;;
10493;SDS011;5294;49.410;8.698;2022-09-28T12:25:11;3.13;;;2.20;;
10493;SDS011;5294;49.410;8.698;2022-09-28T12:27:45;4.47;;;1.93;;
10493;SDS011;5294;49.410;8.698;2022-09-28T12:30:17;2.50;;;1.90;;
10493;SDS011;5294;49.410;8.698;2022-09-28T12:32:48;2.40;;;1.90;;
10493;SDS011;5294;49.410;8.698;2022-09-28T12:37:50;2.40;;;2.20;;
10493;SDS011;5294;49.410;8.698;2022-09-28T12:43:10;2.23;;;2.00;;
10493;SDS011;5294;49.410;8.698;2022-09-28T12:50:58;3.47;;;2.33;;
10493;SDS011;5294;49.410;8.698;2022-09-28T12:56:02;1.67;;;1.50;;
10493;SDS011;5294;49.410;8.698;2022-09-28T13:03:52;3.40;;;2.30;;
10493;SDS011;5294;49.410;8.698;2022-09-28T13:08:55;2.17;;;1.50;;
10493;SDS011;5294;49.410;8.698;2022-09-28T13:11:31;2.90;;;1.83;;
10493;SDS011;5294;49.410;8.698;2022-09-28T13:19:23;2.47;;;2.30;;
10493;SDS011;5294;49.410;8.698;2022-09-28T13:24:28;1.80;;;1.70;;
10493;SDS011;5294;49.410;8.698;2022-09-28T13:27:00;1.67;;;1.57;;
10493;SDS011;5294;49.410;8.698;2022-09-28T13:29:28;3.80;;;2.00;;
10493;SDS011;5294;49.410;8.698;2022-09-28T13:31:56;2.10;;;1.90;;
10493;SDS011;5294;49.410;8.698;2022-09-28T13:34:29;2.80;;;1.97;;
10493;SDS011;5294;49.410;8.698;2022-09-28T13:39:58;2.50;;;1.77;;
10493;SDS011;5294;49.410;8.698;2022-09-28T13:55:36;2.27;;;2.07;;
10493;SDS011;5294;49.410;8.698;2022-09-28T14:00:45;2.63;;;2.10;;
10493;SDS011;5294;49.410;8.698;2022-09-28T14:03:27;2.20;;;2.00;;
10493;SDS011;5294;49.410;8.698;2022-09-28T14:08:26;3.20;;;2.07;;
10493;SDS011;5294;49.410;8.698;2022-09-28T14:10:53;2.07;;;1.97;;
10493;SDS011;5294;49.410;8.698;2022-09-28T14:13:56;1.80;;;1.70;;
10493;SDS011;5294;49.410;8.698;2022-09-28T14:18:41;2.10;;;1.90;;
10493;SDS011;5294;49.410;8.698;2022-09-28T14:23:47;1.80;;;1.37;;
10493;SDS011;5294;49.410;8.698;2022-09-28T14:29:00;1.60;;;1.50;;
10493;SDS011;5294;49.410;8.698;2022-09-28T14:31:31;3.10;;;1.63;;
10493;SDS011;5294;49.410;8.698;2022-09-28T14:33:58;2.47;;;2.30;;
10493;SDS011;5294;49.410;8.698;2022-09-28T14:36:39;3.13;;;2.17;;
10493;SDS011;5294;49.410;8.698;2022-09-28T14:39:26;3.63;;;2.17;;
10493;SDS011;5294;49.410;8.698;2022-09-28T14:42:13;3.30;;;2.20;;
10493;SDS011;5294;49.410;8.698;2022-09-28T14:47:32;1.70;;;1.50;;
10493;SDS011;5294;49.410;8.698;2022-09-28T14:49:59;2.83;;;2.10;;
10493;SDS011;5294;49.410;8.698;2022-09-28T14:52:39;2.17;;;1.93;;
10493;SDS011;5294;49.410;8.698;2022-09-28T14:55:12;2.80;;;2.20;;
10493;SDS011;5294;49.410;8.698;2022-09-28T14:57:41;2.40;;;2.20;;
10493;SDS011;5294;49.410;8.698;2022-09-28T15:00:14;2.50;;;2.30;;
10493;SDS011;5294;49.410;8.698;2022-09-28T15:02:43;2.00;;;1.90;;
10493;SDS011;5294;49.410;8.698;2022-09-28T15:05:13;2.60;;;2.00;;
10493;SDS011;5294;49.410;8.698;2022-09-28T15:07:48;1.97;;;1.70;;
10493;SDS011;5294;49.410;8.698;2022-09-28T15:15:45;2.60;;;2.10;;
10493;SDS011;5294;49.410;8.698;2022-09-28T15:18:51;2.07;;;1.73;;
10493;SDS011;5294;49.410;8.698;2022-09-28T15:21:08;2.00;;;1.90;;
10493;SDS011;5294;49.410;8.698;2022-09-28T15:23:35;2.57;;;1.77;;
10493;SDS011;5294;49.410;8.698;2022-09-28T15:26:03;2.20;;;2.00;;
10493;SDS011;5294;49.410;8.698;2022-09-28T15:28:32;2.90;;;2.47;;
10493;SDS011;5294;49.410;8.698;2022-09-28T15:31:05;3.20;;;2.07;;
10493;SDS011;5294;49.410;8.698;2022-09-28T15:33:32;3.23;;;1.77;;
10493;SDS011;5294;49.410;8.698;2022-09-28T15:36:19;2.30;;;2.10;;
10493;SDS011;5294;49.410;8.698;2022-09-28T15:38:53;1.93;;;1.83;;
10493;SDS011;5294;49.410;8.698;2022-09-28T15:41:20;3.00;;;2.30;;
10493;SDS011;5294;49.410;8.698;2022-09-28T15:44:02;2.30;;;2.10;;
10493;SDS011;5294;49.410;8.698;2022-09-28T15:46:30;2.23;;;2.03;;
10493;SDS011;5294;49.410;8.698;2022-09-28T15:48:58;3.23;;;1.97;;
10493;SDS011;5294;49.410;8.698;2022-09-28T15:51:26;2.30;;;2.03;;
10493;SDS011;5294;49.410;8.698;2022-09-28T15:56:24;2.63;;;2.10;;
10493;SDS011;5294;49.410;8.698;2022-09-28T15:59:09;2.50;;;2.30;;
10493;SDS011;5294;49.410;8.698;2022-09-28T16:01:42;2.30;;;2.20;;
10493;SDS011;5294;49.410;8.698;2022-09-28T16:04:31;1.83;;;1.73;;
10493;SDS011;5294;49.410;8.698;2022-09-28T16:12:20;7.53;;;2.60;;
10493;SDS011;5294;49.410;8.698;2022-09-28T16:14:52;2.47;;;1.97;;
10493;SDS011;5294;49.410;8.698;2022-09-28T16:17:29;2.17;;;1.90;;
10493;SDS011;5294;49.410;8.698;2022-09-28T16:20:33;2.57;;;1.80;;
10493;SDS011;5294;49.410;8.698;2022-09-28T16:22:54;3.47;;;2.20;;
10493;SDS011;5294;49.410;8.698;2022-09-28T16:25:22;3.40;;;2.33;;
10493;SDS011;5294;49.410;8.698;2022-09-28T16:27:49;4.10;;;2.30;;
10493;SDS011;5294;49.410;8.698;2022-09-28T16:30:23;4.47;;;2.00;;
10493;SDS011;5294;49.410;8.698;2022-09-28T16:32:50;4.30;;;2.83;;
10493;SDS011;5294;49.410;8.698;2022-09-28T16:37:47;3.73;;;3.00;;
10493;SDS011;5294;49.410;8.698;2022-09-28T16:40:14;3.50;;;3.20;;
10493;SDS011;5294;49.410;8.698;2022-09-28T16:42:40;3.67;;;3.20;;
10493;SDS011;5294;49.410;8.698;2022-09-28T16:45:09;3.73;;;3.03;;
10493;SDS011;5294;49.410;8.698;2022-09-28T16:47:38;4.27;;;3.53;;
10493;SDS011;5294;49.410;8.698;2022-09-28T16:50:05;5.53;;;4.00;;
10493;SDS011;5294;49.410;8.698;2022-09-28T16:52:36;4.13;;;3.60;;
10493;SDS011;5294;49.410;8.698;2022-09-28T16:55:38;5.23;;;3.27;;
10493;SDS011;5294;49.410;8.698;2022-09-28T16:58:06;6.17;;;3.90;;
10493;SDS011;5294;49.410;8.698;2022-09-28T17:00:33;6.70;;;3.67;;
10493;SDS011;5294;49.410;8.698;2022-09-28T17:02:58;5.30;;;3.50;;
10493;SDS011;5294;49.410;8.698;2022-09-28T17:05:24;4.90;;;3.37;;
10493;SDS011;5294;49.410;8.698;2022-09-28T17:07:58;2.83;;;2.57;;
10493;SDS011;5294;49.410;8.698;2022-09-28T17:12:54;3.37;;;3.07;;
10493;SDS011;5294;49.410;8.698;2022-09-28T17:15:20;5.33;;;3.17;;
10493;SDS011;5294;49.410;8.698;2022-09-28T17:17:47;3.57;;;3.17;;
10493;SDS011;5294;49.410;8.698;2022-09-28T17:20:18;5.00;;;3.80;;
10493;SDS011;5294;49.410;8.698;2022-09-28T17:22:46;5.70;;;3.77;;
10493;SDS011;5294;49.410;8.698;2022-09-28T17:25:14;3.13;;;2.93;;
10493;SDS011;5294;49.410;8.698;2022-09-28T17:27:44;4.83;;;3.43;;
10493;SDS011;5294;49.410;8.698;2022-09-28T17:30:14;3.67;;;3.00;;
10493;SDS011;5294;49.410;8.698;2022-09-28T17:32:42;3.60;;;3.30;;
10493;SDS011;5294;49.410;8.698;2022-09-28T17:35:12;4.30;;;3.90;;
10493;SDS011;5294;49.410;8.698;2022-09-28T17:37:41;3.67;;;3.37;;
10493;SDS011;5294;49.410;8.698;2022-09-28T17:40:23;3.77;;;3.13;;
10493;SDS011;5294;49.410;8.698;2022-09-28T17:42:49;3.90;;;3.50;;
10493;SDS011;5294;49.410;8.698;2022-09-28T17:45:19;4.77;;;3.80;;
10493;SDS011;5294;49.410;8.698;2022-09-28T17:47:45;4.07;;;3.30;;
10493;SDS011;5294;49.410;8.698;2022-09-28T17:50:19;5.80;;;3.53;;
10493;SDS011;5294;49.410;8.698;2022-09-28T17:52:48;3.73;;;3.40;;
10493;SDS011;5294;49.410;8.698;2022-09-28T17:55:17;4.80;;;3.10;;
10493;SDS011;5294;49.410;8.698;2022-09-28T17:57:43;5.83;;;3.47;;
10493;SDS011;5294;49.410;8.698;2022-09-28T18:00:10;4.37;;;3.40;;
10493;SDS011;5294;49.410;8.698;2022-09-28T18:02:39;5.67;;;4.00;;
10493;SDS011;5294;49.410;8.698;2022-09-28T18:05:06;4.27;;;3.80;;
10493;SDS011;5294;49.410;8.698;2022-09-28T18:07:36;4.10;;;3.70;;
10493;SDS011;5294;49.410;8.698;2022-09-28T18:10:05;5.32;;;3.75;;
10493;SDS011;5294;49.410;8.698;2022-09-28T18:12:31;4.87;;;3.90;;
10493;SDS011;5294;49.410;8.698;2022-09-28T18:14:57;4.63;;;3.60;;
10493;SDS011;5294;49.410;8.698;2022-09-28T18:17:23;4.30;;;3.80;;